createdAt,value
2019-05-07T00:02:07.323Z,101662.00
2019-05-07T00:04:36.834Z,101658.00
2019-05-07T00:07:06.891Z,101658.00
2019-05-07T00:09:36.559Z,101656.00
2019-05-07T00:12:06.457Z,101664.00
2019-05-07T00:14:36.183Z,101654.00
2019-05-07T00:17:05.811Z,101656.00
2019-05-07T00:19:35.298Z,101651.00
2019-05-07T00:22:04.887Z,101649.00
2019-05-07T00:24:34.415Z,101645.00
2019-05-07T00:27:03.918Z,101646.00
2019-05-07T00:29:33.424Z,101639.00
2019-05-07T00:32:03.143Z,101645.00
2019-05-07T00:34:34.285Z,101646.00
2019-05-07T00:37:17.370Z,101646.00
2019-05-07T00:39:57.344Z,101646.00
2019-05-07T00:42:37.833Z,101643.00
2019-05-07T00:45:20.069Z,101643.00
2019-05-07T00:47:43.415Z,101637.00
2019-05-07T00:50:17.681Z,101638.00
2019-05-07T00:52:47.126Z,101641.00
2019-05-07T00:55:16.597Z,101635.00
2019-05-07T00:57:46.093Z,101638.00
2019-05-07T01:00:15.886Z,101639.00
2019-05-07T01:02:45.346Z,101642.00
2019-05-07T01:05:14.909Z,101639.00
2019-05-07T01:07:44.383Z,101635.00
2019-05-07T01:10:14.002Z,101639.00
2019-05-07T01:12:43.475Z,101635.00
2019-05-07T01:15:27.135Z,101629.00
2019-05-07T01:17:44.515Z,101636.00
2019-05-07T01:20:14.115Z,101637.00
2019-05-07T01:22:43.621Z,101635.00
2019-05-07T01:25:13.380Z,101641.00
2019-05-07T01:27:42.856Z,101626.00
2019-05-07T01:30:13.046Z,101629.00
2019-05-07T01:32:46.828Z,101625.00
2019-05-07T01:35:17.950Z,101621.00
2019-05-07T01:37:47.532Z,101630.00
2019-05-07T01:40:17.046Z,101631.00
2019-05-07T01:42:46.603Z,101630.00
2019-05-07T01:45:16.875Z,101627.00
2019-05-07T01:47:46.377Z,101632.00
2019-05-07T01:50:16.058Z,101631.00
2019-05-07T01:52:45.564Z,101634.00
2019-05-07T01:55:15.360Z,101634.00
2019-05-07T01:57:44.846Z,101638.00
2019-05-07T02:00:14.665Z,101633.00
2019-05-07T02:02:45.844Z,101638.00
2019-05-07T02:05:19.647Z,101636.00
2019-05-07T02:07:53.556Z,101635.00
2019-05-07T02:10:24.681Z,101630.00
2019-05-07T02:12:54.126Z,101631.00
2019-05-07T02:15:23.670Z,101642.00
2019-05-07T02:17:53.346Z,101634.00
2019-05-07T02:20:22.826Z,101638.00
2019-05-07T02:22:53.250Z,101634.00
2019-05-07T02:25:22.962Z,101633.00
2019-05-07T02:27:52.952Z,101627.00
2019-05-07T02:30:23.838Z,101631.00
2019-05-07T02:32:54.242Z,101621.00
2019-05-07T02:35:24.040Z,101634.00
2019-05-07T02:37:56.789Z,101632.00
2019-05-07T02:40:33.703Z,101634.00
2019-05-07T02:43:03.027Z,101636.00
2019-05-07T02:45:43.772Z,101630.00
2019-05-07T02:48:12.980Z,101633.00
2019-05-07T02:50:44.238Z,101627.00
2019-05-07T02:53:18.014Z,101630.00
2019-05-07T02:55:48.232Z,101632.00
2019-05-07T02:58:17.655Z,101632.00
2019-05-07T03:00:47.279Z,101631.00
2019-05-07T03:03:16.766Z,101626.00
2019-05-07T03:05:46.359Z,101622.00
2019-05-07T03:08:15.984Z,101619.00
2019-05-07T03:10:45.566Z,101614.00
2019-05-07T03:13:15.051Z,101621.00
2019-05-07T03:15:44.738Z,101618.00
2019-05-07T03:18:18.806Z,101616.00
2019-05-07T03:20:59.610Z,101613.00
2019-05-07T03:23:33.761Z,101608.00
2019-05-07T03:26:15.480Z,101604.00
2019-05-07T03:28:53.731Z,101604.00
2019-05-07T03:31:35.574Z,101607.00
2019-05-07T03:34:06.931Z,101604.00
2019-05-07T03:36:47.530Z,101603.00
2019-05-07T03:39:14.638Z,101602.00
2019-05-07T03:41:45.157Z,101604.00
2019-05-07T03:44:33.801Z,101601.00
2019-05-07T03:47:06.381Z,101602.00
2019-05-07T03:49:36.426Z,101603.00
2019-05-07T03:52:05.938Z,101604.00
2019-05-07T03:54:35.466Z,101613.00
2019-05-07T03:57:11.181Z,101601.00
2019-05-07T03:59:36.201Z,101604.00
2019-05-07T04:02:06.620Z,101600.00
2019-05-07T04:04:36.150Z,101603.00
2019-05-07T04:07:05.919Z,101594.00
2019-05-07T04:09:35.306Z,101593.00
2019-05-07T04:12:05.064Z,101590.00
2019-05-07T04:14:34.898Z,101588.00
2019-05-07T04:17:14.379Z,101590.00
2019-05-07T04:19:36.013Z,101590.00
2019-05-07T04:22:05.291Z,101582.00
2019-05-07T04:24:39.227Z,101584.00
2019-05-07T04:27:12.864Z,101586.00
2019-05-07T04:29:42.834Z,101590.00
2019-05-07T04:32:14.516Z,101590.00
2019-05-07T04:34:57.684Z,101589.00
2019-05-07T04:37:27.173Z,101589.00
2019-05-07T04:39:56.672Z,101592.00
2019-05-07T04:42:26.316Z,101592.00
2019-05-07T04:44:55.890Z,101579.00
2019-05-07T04:47:38.454Z,101586.00
2019-05-07T04:49:56.532Z,101579.00
2019-05-07T04:52:36.881Z,101576.00
2019-05-07T04:55:07.873Z,101581.00
2019-05-07T04:57:37.370Z,101578.00
2019-05-07T05:00:09.855Z,101577.00
2019-05-07T05:02:43.765Z,101576.00
2019-05-07T05:05:14.529Z,101570.00
2019-05-07T05:07:44.025Z,101570.00
2019-05-07T05:10:13.818Z,101571.00
2019-05-07T05:12:43.317Z,101568.00
2019-05-07T05:15:13.119Z,101569.00
2019-05-07T05:17:50.450Z,101561.00
2019-05-07T05:20:16.060Z,101567.00
2019-05-07T05:22:47.172Z,101565.00
2019-05-07T05:25:33.507Z,101558.00
2019-05-07T05:28:02.955Z,101568.00
2019-05-07T05:30:49.385Z,101563.00
2019-05-07T05:33:18.886Z,101562.00
2019-05-07T05:35:49.214Z,101566.00
2019-05-07T05:38:18.778Z,101567.00
2019-05-07T05:40:48.339Z,101570.00
2019-05-07T05:43:19.447Z,101567.00
2019-05-07T05:45:52.893Z,101563.00
2019-05-07T05:48:22.355Z,101570.00
2019-05-07T05:50:53.835Z,101559.00
2019-05-07T05:53:25.127Z,101573.00
2019-05-07T05:55:56.297Z,101571.00
2019-05-07T05:58:36.383Z,101570.00
2019-05-07T06:01:16.420Z,101570.00
2019-05-07T06:03:53.422Z,101563.00
2019-05-07T06:06:39.657Z,101564.00
2019-05-07T06:09:12.336Z,101562.00
2019-05-07T06:11:49.386Z,101565.00
2019-05-07T06:14:23.338Z,101567.00
2019-05-07T06:17:12.888Z,101553.00
2019-05-07T06:19:59.594Z,101563.00
2019-05-07T06:22:32.945Z,101568.00
2019-05-07T06:25:06.414Z,101564.00
2019-05-07T06:27:35.893Z,101557.00
2019-05-07T06:30:06.808Z,101562.00
2019-05-07T06:32:36.390Z,101558.00
2019-05-07T06:35:07.461Z,101560.00
2019-05-07T06:37:37.243Z,101558.00
2019-05-07T06:40:12.168Z,101563.00
2019-05-07T06:42:46.222Z,101561.00
2019-05-07T06:45:35.465Z,101564.00
2019-05-07T06:48:38.097Z,101564.00
2019-05-07T06:50:58.670Z,101566.00
2019-05-07T06:53:33.003Z,101556.00
2019-05-07T06:56:03.387Z,101567.00
2019-05-07T06:58:37.796Z,101560.00
2019-05-07T07:01:09.082Z,101553.00
2019-05-07T07:03:41.970Z,101557.00
2019-05-07T07:06:22.959Z,101562.00
2019-05-07T07:08:57.115Z,101561.00
2019-05-07T07:11:43.352Z,101556.00
2019-05-07T07:14:12.850Z,101554.00
2019-05-07T07:16:42.518Z,101556.00
2019-05-07T07:19:12.506Z,101564.00
2019-05-07T07:21:42.704Z,101558.00
2019-05-07T07:24:12.791Z,101558.00
2019-05-07T07:26:42.426Z,101555.00
2019-05-07T07:29:13.559Z,101548.00
2019-05-07T07:31:47.578Z,101551.00
2019-05-07T07:34:18.666Z,101554.00
2019-05-07T07:37:05.047Z,101551.00
2019-05-07T07:39:23.734Z,101556.00
2019-05-07T07:41:57.654Z,101548.00
2019-05-07T07:44:27.189Z,101552.00
2019-05-07T07:46:56.670Z,101553.00
2019-05-07T07:49:26.183Z,101550.00
2019-05-07T07:51:55.673Z,101540.00
2019-05-07T07:54:25.178Z,101543.00
2019-05-07T07:56:56.844Z,101546.00
2019-05-07T07:59:28.181Z,101538.00
2019-05-07T08:02:08.271Z,101539.00
2019-05-07T08:04:37.841Z,101539.00
2019-05-07T08:07:07.324Z,101532.00
2019-05-07T08:09:37.470Z,101536.00
2019-05-07T08:12:07.340Z,101533.00
2019-05-07T08:14:36.978Z,101533.00
2019-05-07T08:17:08.171Z,101531.00
2019-05-07T08:19:37.635Z,101532.00
2019-05-07T08:22:07.196Z,101529.00
2019-05-07T08:24:37.467Z,101527.00
2019-05-07T08:27:07.098Z,101516.00
2019-05-07T08:29:39.602Z,101523.00
2019-05-07T08:32:26.896Z,101523.00
2019-05-07T08:35:02.339Z,101520.00
2019-05-07T08:37:32.234Z,101509.00
2019-05-07T08:40:03.067Z,101512.00
2019-05-07T08:42:32.746Z,101506.00
2019-05-07T08:45:24.253Z,101510.00
2019-05-07T08:47:53.255Z,101502.00
2019-05-07T08:50:22.731Z,101499.00
2019-05-07T08:52:52.286Z,101497.00
2019-05-07T08:55:21.889Z,101495.00
2019-05-07T08:57:52.509Z,101497.00
2019-05-07T09:00:23.909Z,101492.00
2019-05-07T09:02:53.249Z,101492.00
2019-05-07T09:05:22.938Z,101485.00
2019-05-07T09:07:52.537Z,101487.00
2019-05-07T09:10:21.968Z,101496.00
2019-05-07T09:12:52.641Z,101489.00
2019-05-07T09:15:22.723Z,101483.00
2019-05-07T09:17:52.724Z,101485.00
2019-05-07T09:20:22.863Z,101475.00
2019-05-07T09:22:52.625Z,101479.00
2019-05-07T09:25:22.432Z,101479.00
2019-05-07T09:27:53.719Z,101474.00
2019-05-07T09:30:42.078Z,101464.00
2019-05-07T09:33:13.508Z,101468.00
2019-05-07T09:35:44.764Z,101462.00
2019-05-07T09:38:14.241Z,101467.00
2019-05-07T09:40:43.781Z,101470.00
2019-05-07T09:43:13.310Z,101460.00
2019-05-07T09:45:42.812Z,101469.00
2019-05-07T09:48:12.456Z,101475.00
2019-05-07T09:50:42.920Z,101462.00
2019-05-07T09:53:12.922Z,101471.00
2019-05-07T09:55:42.738Z,101473.00
2019-05-07T09:58:12.715Z,101465.00
2019-05-07T10:00:42.667Z,101467.00
2019-05-07T10:03:12.849Z,101464.00
2019-05-07T10:05:42.958Z,101471.00
2019-05-07T10:08:13.131Z,101469.00
2019-05-07T10:10:44.577Z,101465.00
2019-05-07T10:13:15.759Z,101463.00
2019-05-07T10:15:45.424Z,101460.00
2019-05-07T10:18:16.163Z,101459.00
2019-05-07T10:20:48.855Z,101456.00
2019-05-07T10:23:22.907Z,101442.00
2019-05-07T10:25:55.195Z,101440.00
2019-05-07T10:28:25.208Z,101446.00
2019-05-07T10:30:55.561Z,101441.00
2019-05-07T10:33:25.257Z,101438.00
2019-05-07T10:35:54.772Z,101437.00
2019-05-07T10:38:24.239Z,101438.00
2019-05-07T10:40:53.776Z,101434.00
2019-05-07T10:43:23.331Z,101440.00
2019-05-07T10:45:54.828Z,101439.00
2019-05-07T10:48:43.879Z,101435.00
2019-05-07T10:51:13.467Z,101428.00
2019-05-07T10:53:43.234Z,101427.00
2019-05-07T10:56:13.138Z,101420.00
2019-05-07T10:58:42.656Z,101425.00
2019-05-07T11:01:14.510Z,101427.00
2019-05-07T11:03:44.074Z,101425.00
2019-05-07T11:06:13.642Z,101426.00
2019-05-07T11:08:43.183Z,101425.00
2019-05-07T11:11:12.744Z,101429.00
2019-05-07T11:13:42.318Z,101422.00
2019-05-07T11:16:13.428Z,101420.00
2019-05-07T11:18:44.547Z,101421.00
2019-05-07T11:21:14.339Z,101418.00
2019-05-07T11:23:43.842Z,101408.00
2019-05-07T11:26:13.370Z,101409.00
2019-05-07T11:28:42.836Z,101399.00
2019-05-07T11:31:12.563Z,101389.00
2019-05-07T11:33:42.024Z,101398.00
2019-05-07T11:36:11.522Z,101395.00
2019-05-07T11:38:41.840Z,101397.00
2019-05-07T11:41:12.847Z,101401.00
2019-05-07T11:43:46.593Z,101392.00
2019-05-07T11:46:27.390Z,101393.00
2019-05-07T11:49:04.331Z,101392.00
2019-05-07T11:51:42.615Z,101390.00
2019-05-07T11:54:15.839Z,101385.00
2019-05-07T11:56:45.347Z,101381.00
2019-05-07T11:59:14.826Z,101379.00
2019-05-07T12:01:48.975Z,101377.00
2019-05-07T12:04:18.483Z,101373.00
2019-05-07T12:06:47.968Z,101371.00
2019-05-07T12:09:17.505Z,101367.00
2019-05-07T12:11:46.981Z,101372.00
2019-05-07T12:14:28.049Z,101365.00
2019-05-07T12:16:47.696Z,101360.00
2019-05-07T12:19:17.183Z,101355.00
2019-05-07T12:21:47.219Z,101348.00
2019-05-07T12:24:16.741Z,101352.00
2019-05-07T12:26:46.263Z,101352.00
2019-05-07T12:29:15.783Z,101356.00
2019-05-07T12:31:56.120Z,101356.00
2019-05-07T12:34:27.245Z,101345.00
2019-05-07T12:36:56.736Z,101339.00
2019-05-07T12:39:26.226Z,101333.00
2019-05-07T12:41:56.027Z,101322.00
2019-05-07T12:44:25.605Z,101326.00
2019-05-07T12:46:54.951Z,101318.00
2019-05-07T12:49:24.435Z,101321.00
2019-05-07T12:51:55.642Z,101318.00
2019-05-07T12:54:36.742Z,101316.00
2019-05-07T12:57:06.526Z,101306.00
2019-05-07T12:59:36.103Z,101305.00
2019-05-07T13:02:33.884Z,101306.00
2019-05-07T13:04:48.174Z,101308.00
2019-05-07T13:07:25.245Z,101298.00
2019-05-07T13:09:55.213Z,101296.00
2019-05-07T13:12:24.724Z,101293.00
2019-05-07T13:14:54.316Z,101295.00
2019-05-07T13:17:23.784Z,101286.00
2019-05-07T13:19:53.305Z,101284.00
2019-05-07T13:22:22.793Z,101280.00
2019-05-07T13:24:52.927Z,101276.00
2019-05-07T13:27:22.509Z,101273.00
2019-05-07T13:29:53.100Z,101268.00
2019-05-07T13:32:24.484Z,101265.00
2019-05-07T13:34:57.595Z,101266.00
2019-05-07T13:37:29.338Z,101263.00
2019-05-07T13:40:12.775Z,101258.00
2019-05-07T13:42:44.122Z,101255.00
2019-05-07T13:45:22.437Z,101260.00
2019-05-07T13:47:54.260Z,101257.00
2019-05-07T13:50:23.920Z,101255.00
2019-05-07T13:52:53.621Z,101253.00
2019-05-07T13:55:23.184Z,101256.00
2019-05-07T13:57:52.808Z,101250.00
2019-05-07T14:00:23.989Z,101255.00
2019-05-07T14:02:54.934Z,101251.00
2019-05-07T14:05:24.588Z,101253.00
2019-05-07T14:07:54.274Z,101252.00
2019-05-07T14:10:23.728Z,101245.00
2019-05-07T14:12:53.347Z,101243.00
2019-05-07T14:15:23.271Z,101248.00
2019-05-07T14:17:54.972Z,101239.00
2019-05-07T14:20:24.223Z,101238.00
2019-05-07T14:22:53.765Z,101235.00
2019-05-07T14:25:24.142Z,101238.00
2019-05-07T14:27:53.853Z,101229.00
2019-05-07T14:30:24.516Z,101231.00
2019-05-07T14:33:01.934Z,101228.00
2019-05-07T14:35:33.134Z,101218.00
2019-05-07T14:38:06.982Z,101222.00
2019-05-07T14:40:36.512Z,101209.00
2019-05-07T14:43:13.696Z,101210.00
2019-05-07T14:45:43.415Z,101211.00
2019-05-07T14:48:13.021Z,101208.00
2019-05-07T14:50:44.907Z,101210.00
2019-05-07T14:53:14.035Z,101207.00
2019-05-07T14:55:43.654Z,101204.00
2019-05-07T14:58:13.217Z,101203.00
2019-05-07T15:00:42.917Z,101195.00
2019-05-07T15:03:12.786Z,101194.00
2019-05-07T15:05:42.485Z,101194.00
2019-05-07T15:08:14.419Z,101183.00
2019-05-07T15:10:45.151Z,101191.00
2019-05-07T15:13:14.889Z,101186.00
2019-05-07T15:15:45.769Z,101187.00
2019-05-07T15:18:22.269Z,101187.00
2019-05-07T15:20:52.552Z,101182.00
2019-05-07T15:23:24.137Z,101169.00
2019-05-07T15:25:53.634Z,101166.00
2019-05-07T15:28:23.576Z,101172.00
2019-05-07T15:31:12.107Z,101168.00
2019-05-07T15:33:41.895Z,101162.00
2019-05-07T15:36:11.960Z,101162.00
2019-05-07T15:38:42.900Z,101154.00
2019-05-07T15:41:12.782Z,101156.00
2019-05-07T15:43:45.831Z,101156.00
2019-05-07T15:46:34.409Z,101147.00
2019-05-07T15:48:55.196Z,101148.00
2019-05-07T15:51:24.746Z,101144.00
2019-05-07T15:53:55.996Z,101146.00
2019-05-07T15:56:27.620Z,101133.00
2019-05-07T15:58:57.074Z,101135.00
2019-05-07T16:01:26.604Z,101133.00
2019-05-07T16:03:56.266Z,101129.00
2019-05-07T16:06:25.779Z,101134.00
2019-05-07T16:08:56.949Z,101134.00
2019-05-07T16:11:26.593Z,101128.00
2019-05-07T16:14:06.868Z,101127.00
2019-05-07T16:16:42.853Z,101128.00
2019-05-07T16:19:26.201Z,101124.00
2019-05-07T16:21:56.834Z,101127.00
2019-05-07T16:24:26.286Z,101123.00
2019-05-07T16:26:55.844Z,101115.00
2019-05-07T16:29:25.365Z,101118.00
2019-05-07T16:31:57.063Z,101116.00
2019-05-07T16:34:26.851Z,101115.00
2019-05-07T16:36:56.370Z,101104.00
2019-05-07T16:39:25.903Z,101088.00
2019-05-07T16:41:55.343Z,101088.00
2019-05-07T16:44:24.853Z,101096.00
2019-05-07T16:46:54.320Z,101095.00
2019-05-07T16:49:23.822Z,101096.00
2019-05-07T16:51:53.310Z,101088.00
2019-05-07T16:54:22.818Z,101086.00
2019-05-07T16:56:59.720Z,101079.00
2019-05-07T16:59:29.209Z,101085.00
2019-05-07T17:02:02.541Z,101090.00
2019-05-07T17:04:33.117Z,101085.00
2019-05-07T17:07:04.325Z,101085.00
2019-05-07T17:09:35.376Z,101085.00
2019-05-07T17:12:06.824Z,101088.00
2019-05-07T17:14:36.330Z,101090.00
2019-05-07T17:17:05.828Z,101089.00
2019-05-07T17:19:35.353Z,101080.00
2019-05-07T17:22:06.619Z,101081.00
2019-05-07T17:24:36.065Z,101082.00
2019-05-07T17:27:05.631Z,101072.00
2019-05-07T17:29:35.082Z,101078.00
2019-05-07T17:32:04.681Z,101074.00
2019-05-07T17:34:34.210Z,101079.00
2019-05-07T17:37:03.766Z,101072.00
2019-05-07T17:39:33.268Z,101077.00
2019-05-07T17:42:02.755Z,101076.00
2019-05-07T17:44:32.537Z,101069.00
2019-05-07T17:47:02.228Z,101076.00
2019-05-07T17:49:32.434Z,101071.00
2019-05-07T17:52:03.027Z,101070.00
2019-05-07T17:54:32.576Z,101071.00
2019-05-07T17:57:02.235Z,101071.00
2019-05-07T17:59:32.266Z,101067.00
2019-05-07T18:02:03.367Z,101066.00
2019-05-07T18:04:47.694Z,101063.00
2019-05-07T18:07:05.440Z,101061.00
2019-05-07T18:09:35.002Z,101055.00
2019-05-07T18:12:04.714Z,101046.00
2019-05-07T18:14:34.236Z,101050.00
2019-05-07T18:17:05.443Z,101050.00
2019-05-07T18:19:35.011Z,101050.00
2019-05-07T18:22:04.366Z,101050.00
2019-05-07T18:24:33.831Z,101049.00
2019-05-07T18:27:05.169Z,101048.00
2019-05-07T18:29:34.666Z,101048.00
2019-05-07T18:32:05.909Z,101048.00
2019-05-07T18:34:35.453Z,101043.00
2019-05-07T18:37:05.348Z,101041.00
2019-05-07T18:39:34.814Z,101041.00
2019-05-07T18:42:04.324Z,101038.00
2019-05-07T18:44:33.869Z,101041.00
2019-05-07T18:47:03.492Z,101037.00
2019-05-07T18:49:33.003Z,101045.00
2019-05-07T18:52:03.005Z,101038.00
2019-05-07T18:54:32.559Z,101035.00
2019-05-07T18:57:02.416Z,101040.00
2019-05-07T18:59:34.064Z,101047.00
2019-05-07T19:02:03.792Z,101035.00
2019-05-07T19:04:33.411Z,101040.00
2019-05-07T19:07:02.941Z,101037.00
2019-05-07T19:09:32.513Z,101046.00
2019-05-07T19:12:02.165Z,101042.00
2019-05-07T19:14:33.274Z,101040.00
2019-05-07T19:17:03.278Z,101039.00
2019-05-07T19:19:32.967Z,101041.00
2019-05-07T19:22:02.418Z,101046.00
2019-05-07T19:24:44.704Z,101040.00
2019-05-07T19:27:03.128Z,101044.00
2019-05-07T19:29:32.848Z,101036.00
2019-05-07T19:32:03.182Z,101036.00
2019-05-07T19:34:32.840Z,101033.00
2019-05-07T19:37:04.891Z,101035.00
2019-05-07T19:39:34.384Z,101028.00
2019-05-07T19:42:04.004Z,101044.00
2019-05-07T19:44:33.537Z,101043.00
2019-05-07T19:47:03.282Z,101052.00
2019-05-07T19:49:32.842Z,101055.00
2019-05-07T19:52:02.310Z,101056.00
2019-05-07T19:54:32.379Z,101055.00
2019-05-07T19:57:02.820Z,101044.00
2019-05-07T19:59:32.782Z,101047.00
2019-05-07T20:02:04.133Z,101048.00
2019-05-07T20:04:33.646Z,101056.00
2019-05-07T20:07:03.129Z,101042.00
2019-05-07T20:09:34.259Z,101042.00
2019-05-07T20:12:03.813Z,101033.00
2019-05-07T20:14:33.418Z,101024.00
2019-05-07T20:17:03.099Z,101030.00
2019-05-07T20:19:33.011Z,101023.00
2019-05-07T20:22:02.538Z,101014.00
2019-05-07T20:24:32.622Z,101007.00
2019-05-07T20:27:03.144Z,100999.00
2019-05-07T20:29:32.848Z,100987.00
2019-05-07T20:32:02.328Z,100989.00
2019-05-07T20:34:33.231Z,100985.00
2019-05-07T20:37:03.230Z,100979.00
2019-05-07T20:39:33.033Z,100971.00
2019-05-07T20:42:03.158Z,100978.00
2019-05-07T20:44:32.698Z,100968.00
2019-05-07T20:47:02.229Z,100971.00
2019-05-07T20:49:32.160Z,100963.00
2019-05-07T20:52:01.653Z,100970.00
2019-05-07T20:54:33.164Z,100960.00
2019-05-07T20:57:07.085Z,100957.00
2019-05-07T20:59:36.627Z,100964.00
2019-05-07T21:02:06.237Z,100962.00
2019-05-07T21:04:35.810Z,100958.00
2019-05-07T21:07:05.320Z,100955.00
2019-05-07T21:09:34.802Z,100960.00
2019-05-07T21:12:04.441Z,100961.00
2019-05-07T21:14:33.951Z,100967.00
2019-05-07T21:17:03.436Z,100955.00
2019-05-07T21:19:33.271Z,100952.00
2019-05-07T21:22:03.036Z,100953.00
2019-05-07T21:24:33.224Z,100938.00
2019-05-07T21:27:02.880Z,100935.00
2019-05-07T21:29:32.795Z,100934.00
2019-05-07T21:32:03.297Z,100924.00
2019-05-07T21:34:32.987Z,100922.00
2019-05-07T21:37:03.286Z,100917.00
2019-05-07T21:39:33.210Z,100915.00
2019-05-07T21:42:02.705Z,100921.00
2019-05-07T21:44:32.716Z,100927.00
2019-05-07T21:47:03.880Z,100915.00
2019-05-07T21:49:33.535Z,100919.00
2019-05-07T21:52:03.041Z,100901.00
2019-05-07T21:54:34.213Z,100911.00
2019-05-07T21:57:08.138Z,100909.00
2019-05-07T21:59:39.233Z,100897.00
2019-05-07T22:02:21.941Z,100893.00
2019-05-07T22:04:52.895Z,100899.00
2019-05-07T22:07:22.877Z,100891.00
2019-05-07T22:09:54.339Z,100878.00
2019-05-07T22:12:23.738Z,100878.00
2019-05-07T22:14:53.211Z,100879.00
2019-05-07T22:17:22.723Z,100874.00
2019-05-07T22:19:52.594Z,100872.00
2019-05-07T22:22:24.230Z,100868.00
2019-05-07T22:24:53.504Z,100875.00
2019-05-07T22:27:22.965Z,100860.00
2019-05-07T22:29:52.773Z,100864.00
2019-05-07T22:32:24.089Z,100867.00
2019-05-07T22:34:55.190Z,100855.00
2019-05-07T22:37:24.645Z,100853.00
2019-05-07T22:39:54.147Z,100839.00
2019-05-07T22:42:23.735Z,100839.00
2019-05-07T22:44:53.227Z,100821.00
2019-05-07T22:47:23.043Z,100821.00
2019-05-07T22:49:53.626Z,100821.00
2019-05-07T22:52:23.516Z,100813.00
2019-05-07T22:54:53.079Z,100813.00
2019-05-07T22:57:42.019Z,100809.00
2019-05-07T23:00:14.009Z,100806.00
2019-05-07T23:02:43.475Z,100805.00
2019-05-07T23:05:13.191Z,100796.00
2019-05-07T23:07:44.065Z,100793.00
2019-05-07T23:10:13.784Z,100787.00
2019-05-07T23:12:43.269Z,100780.00
2019-05-07T23:15:13.742Z,100773.00
2019-05-07T23:17:43.202Z,100775.00
2019-05-07T23:20:13.015Z,100777.00
2019-05-07T23:22:42.857Z,100766.00
2019-05-07T23:25:12.702Z,100763.00
2019-05-07T23:27:42.173Z,100758.00
2019-05-07T23:30:12.973Z,100761.00
2019-05-07T23:32:42.622Z,100749.00
2019-05-07T23:35:12.789Z,100741.00
2019-05-07T23:37:44.238Z,100738.00
2019-05-07T23:40:32.455Z,100733.00
2019-05-07T23:43:06.326Z,100737.00
2019-05-07T23:45:35.853Z,100737.00
2019-05-07T23:48:05.327Z,100730.00
2019-05-07T23:50:34.832Z,100732.00
2019-05-07T23:53:04.313Z,100731.00
2019-05-07T23:55:33.855Z,100729.00
2019-05-07T23:58:03.307Z,100730.00
